Time;durP1;ratioP1;P1;durP2;ratioP2;P2;SDS_P1;SDS_P2;PMS_P1;PMS_P2;Temp;Humidity;BMP_temperature;BMP_pressure;BME280_temperature;BME280_humidity;BME280_pressure;Samples;Min_cycle;Max_cycle;Signal;HPM_P1;HPM_P2
2021/05/10 00:01:16;;;;;;;;;;;13.50;70.00;;;;;;5029739;28;77117;-64
2021/05/10 00:03:42;;;;;;;;;;;13.50;69.90;;;;;;5032109;28;74479;-69
2021/05/10 00:06:07;;;;;;;;;;;13.50;70.00;;;;;;5029963;28;75194;-69
2021/05/10 00:08:33;;;;;;;;;;;13.50;70.00;;;;;;5033455;28;74556;-69
2021/05/10 00:10:59;;;;;;;;;;;13.50;70.00;;;;;;5034891;28;75185;-65
2021/05/10 00:13:26;;;;;;;;;;;13.40;70.00;;;;;;5033269;28;75457;-67
2021/05/10 00:15:51;;;;;;;;;;;13.40;70.20;;;;;;5033423;28;75918;-67
2021/05/10 00:18:17;;;;;;;;;;;13.40;70.50;;;;;;5035290;28;74360;-69
2021/05/10 00:20:43;;;;;;;;;;;13.40;70.60;;;;;;5033363;28;75298;-67
2021/05/10 00:23:09;;;;;;;;;;;13.40;70.80;;;;;;5034574;28;75226;-68
2021/05/10 00:25:36;;;;;;;;;;;13.40;70.90;;;;;;5035039;28;74561;-69
2021/05/10 00:28:02;;;;;;;;;;;13.40;71.00;;;;;;5033355;28;76369;-69
2021/05/10 00:30:27;;;;;;;;;;;13.40;71.20;;;;;;5033282;28;78381;-69
2021/05/10 00:32:53;;;;;;;;;;;13.40;71.30;;;;;;5033246;28;75415;-68
2021/05/10 00:35:20;;;;;;;;;;;13.40;71.40;;;;;;5034796;28;75159;-67
2021/05/10 00:37:45;;;;;;;;;;;13.40;71.60;;;;;;5032827;28;77623;-71
2021/05/10 00:40:13;;;;;;;;;;;13.30;71.50;;;;;;5032999;28;77321;-66
2021/05/10 00:42:39;;;;;;;;;;;13.30;71.40;;;;;;5034729;28;74895;-66
2021/05/10 00:45:05;;;;;;;;;;;13.30;71.50;;;;;;5032718;28;78684;-66
2021/05/10 00:47:31;;;;;;;;;;;13.20;71.50;;;;;;5034311;27;75419;-66
2021/05/10 00:49:56;;;;;;;;;;;13.20;71.50;;;;;;5034791;28;74512;-66
2021/05/10 00:52:22;;;;;;;;;;;13.20;71.70;;;;;;5032943;28;77538;-66
2021/05/10 00:54:51;;;;;;;;;;;13.20;71.60;;;;;;5034619;28;74510;-65
2021/05/10 00:57:17;;;;;;;;;;;13.20;71.60;;;;;;5034210;28;75305;-67
2021/05/10 00:59:43;;;;;;;;;;;13.20;71.70;;;;;;5034464;28;74458;-68
2021/05/10 01:02:09;;;;;;;;;;;13.20;71.90;;;;;;5032458;28;77459;-68
2021/05/10 01:04:34;;;;;;;;;;;13.20;72.00;;;;;;5034881;28;75001;-69
2021/05/10 01:07:00;;;;;;;;;;;13.10;72.00;;;;;;5033784;28;75191;-71
2021/05/10 01:09:26;;;;;;;;;;;13.10;72.20;;;;;;5032675;28;77150;-65
2021/05/10 01:11:54;;;;;;;;;;;13.10;72.30;;;;;;5033729;27;94098;-67
2021/05/10 01:14:19;;;;;;;;;;;13.00;72.30;;;;;;5034019;28;75120;-66
2021/05/10 01:16:45;;;;;;;;;;;13.00;72.30;;;;;;5034238;28;75545;-66
2021/05/10 01:19:11;;;;;;;;;;;13.00;72.40;;;;;;5033223;28;74580;-68
2021/05/10 01:21:37;;;;;;;;;;;13.00;72.40;;;;;;5033954;28;75122;-66
2021/05/10 01:24:02;;;;;;;;;;;13.00;72.40;;;;;;5034151;28;75072;-67
2021/05/10 01:26:28;;;;;;;;;;;13.00;72.40;;;;;;5033510;28;75570;-71
2021/05/10 01:28:54;;;;;;;;;;;12.90;72.40;;;;;;5031844;28;75487;-70
2021/05/10 01:31:20;;;;;;;;;;;12.90;72.60;;;;;;5032066;28;75612;-70
2021/05/10 01:33:45;;;;;;;;;;;12.80;72.60;;;;;;5031794;28;76604;-68
2021/05/10 01:36:12;;;;;;;;;;;12.80;72.50;;;;;;5031560;28;76985;-68
2021/05/10 01:38:38;;;;;;;;;;;12.70;72.30;;;;;;5033843;28;75186;-69
2021/05/10 01:41:04;;;;;;;;;;;12.80;72.30;;;;;;5032225;28;77417;-67
2021/05/10 01:43:29;;;;;;;;;;;12.70;72.20;;;;;;5031676;28;75732;-66
2021/05/10 01:45:55;;;;;;;;;;;12.80;72.10;;;;;;5032340;28;76500;-69
2021/05/10 01:48:21;;;;;;;;;;;12.70;72.10;;;;;;5033358;28;75084;-66
2021/05/10 01:50:47;;;;;;;;;;;12.70;72.00;;;;;;5032134;28;78101;-66
2021/05/10 01:53:13;;;;;;;;;;;12.70;72.10;;;;;;5049107;28;74618;-65
2021/05/10 01:55:39;;;;;;;;;;;12.70;72.10;;;;;;5048824;28;76410;-69
2021/05/10 01:58:05;;;;;;;;;;;12.60;72.00;;;;;;5031958;28;76914;-71
2021/05/10 02:00:35;;;;;;;;;;;12.60;72.10;;;;;;5033315;28;74538;-68
2021/05/10 02:03:01;;;;;;;;;;;12.60;72.00;;;;;;5031898;28;75907;-71
2021/05/10 02:05:27;;;;;;;;;;;12.60;71.80;;;;;;5031121;28;77478;-70
2021/05/10 02:07:54;;;;;;;;;;;12.60;71.80;;;;;;5031459;28;75500;-66
2021/05/10 02:10:19;;;;;;;;;;;12.60;71.70;;;;;;5033268;28;74591;-68
2021/05/10 02:12:52;;;;;;;;;;;12.60;71.40;;;;;;5031583;28;75607;-65
2021/05/10 02:15:18;;;;;;;;;;;12.40;70.90;;;;;;5031301;28;75383;-64
2021/05/10 02:17:44;;;;;;;;;;;12.40;71.10;;;;;;5031086;28;77233;-64
2021/05/10 02:20:09;;;;;;;;;;;12.40;70.90;;;;;;5033100;28;75128;-62
2021/05/10 02:22:35;;;;;;;;;;;12.40;70.40;;;;;;5032797;28;75618;-63
2021/05/10 02:25:01;;;;;;;;;;;12.30;70.40;;;;;;5031132;28;76759;-63
2021/05/10 02:27:27;;;;;;;;;;;12.30;70.10;;;;;;5033218;28;75664;-64
2021/05/10 02:29:53;;;;;;;;;;;12.20;70.10;;;;;;5029769;28;77207;-66
2021/05/10 02:32:18;;;;;;;;;;;12.20;70.20;;;;;;5031261;28;74763;-64
2021/05/10 02:34:44;;;;;;;;;;;12.20;70.00;;;;;;5032762;28;75734;-64
2021/05/10 02:37:12;;;;;;;;;;;12.20;70.10;;;;;;5031174;28;75450;-66
2021/05/10 02:39:38;;;;;;;;;;;12.30;69.80;;;;;;5031194;28;78101;-69
2021/05/10 02:42:03;;;;;;;;;;;12.30;69.90;;;;;;5032812;28;75218;-68
2021/05/10 02:44:29;;;;;;;;;;;12.30;69.70;;;;;;5032588;28;75664;-71
2021/05/10 02:46:55;;;;;;;;;;;12.30;69.30;;;;;;5032543;28;74509;-69
2021/05/10 02:49:20;;;;;;;;;;;12.20;69.10;;;;;;5032587;28;75174;-70
2021/05/10 02:51:46;;;;;;;;;;;12.20;69.20;;;;;;5032796;28;75222;-69
2021/05/10 02:54:11;;;;;;;;;;;12.20;69.30;;;;;;5030973;28;78074;-69
2021/05/10 02:56:37;;;;;;;;;;;12.20;69.20;;;;;;5030760;28;75261;-69
2021/05/10 02:59:03;;;;;;;;;;;12.20;69.00;;;;;;5032426;28;75585;-65
2021/05/10 03:01:28;;;;;;;;;;;12.20;69.30;;;;;;5030812;28;75902;-68
2021/05/10 03:03:54;;;;;;;;;;;12.20;69.20;;;;;;5030765;28;75437;-70
2021/05/10 03:06:20;;;;;;;;;;;12.20;69.30;;;;;;5030690;28;77142;-69
2021/05/10 03:08:45;;;;;;;;;;;12.10;69.10;;;;;;5030342;28;77501;-68
2021/05/10 03:11:11;;;;;;;;;;;12.10;69.20;;;;;;5030984;28;74630;-69
2021/05/10 03:13:36;;;;;;;;;;;12.10;69.00;;;;;;5032081;28;75118;-67
2021/05/10 03:16:02;;;;;;;;;;;12.10;69.20;;;;;;5030490;28;76286;-66
2021/05/10 03:18:28;;;;;;;;;;;12.10;69.30;;;;;;5032194;28;75237;-66
2021/05/10 03:20:53;;;;;;;;;;;12.10;69.40;;;;;;5032126;28;74427;-64
2021/05/10 03:23:19;;;;;;;;;;;12.10;69.40;;;;;;5032410;28;75233;-63
2021/05/10 03:25:44;;;;;;;;;;;12.20;69.50;;;;;;5030919;28;77905;-64
2021/05/10 03:28:10;;;;;;;;;;;12.10;69.30;;;;;;5032643;28;74369;-64
2021/05/10 03:30:36;;;;;;;;;;;12.10;69.20;;;;;;5032077;28;75361;-64
2021/05/10 03:33:01;;;;;;;;;;;12.10;69.10;;;;;;5031885;28;75152;-66
2021/05/10 03:35:27;;;;;;;;;;;12.00;68.70;;;;;;5032174;28;74686;-66
2021/05/10 03:37:53;;;;;;;;;;;12.00;68.80;;;;;;5031912;28;74960;-64
2021/05/10 03:40:18;;;;;;;;;;;12.00;68.80;;;;;;5031846;28;75109;-64
2021/05/10 03:42:46;;;;;;;;;;;12.00;68.40;;;;;;5033468;28;76284;-68
2021/05/10 03:45:12;;;;;;;;;;;11.90;68.50;;;;;;5035453;28;75183;-69
2021/05/10 03:47:41;;;;;;;;;;;11.90;68.80;;;;;;5035592;28;75264;-68
2021/05/10 03:50:07;;;;;;;;;;;11.80;68.40;;;;;;5034299;28;77771;-69
2021/05/10 03:52:33;;;;;;;;;;;11.70;68.80;;;;;;5035413;28;74408;-65
2021/05/10 03:54:59;;;;;;;;;;;11.70;69.00;;;;;;5035497;28;74831;-67
2021/05/10 03:57:24;;;;;;;;;;;11.70;68.80;;;;;;5033662;28;75579;-68
2021/05/10 03:59:50;;;;;;;;;;;11.50;68.90;;;;;;5035132;28;74455;-67
2021/05/10 04:02:16;;;;;;;;;;;11.50;69.20;;;;;;5033717;28;78073;-69
2021/05/10 04:04:46;;;;;;;;;;;11.50;69.40;;;;;;5035836;28;74409;-69
2021/05/10 04:15:11;;;;;;;;;;;11.20;69.40;;;;;;5035350;28;74903;-69
2021/05/10 04:17:37;;;;;;;;;;;11.20;69.60;;;;;;5033502;28;75581;-71
2021/05/10 04:20:03;;;;;;;;;;;11.20;69.60;;;;;;5033497;28;76259;-67
2021/05/10 04:22:28;;;;;;;;;;;11.20;69.70;;;;;;5035106;28;74989;-69
2021/05/10 04:24:54;;;;;;;;;;;11.10;69.60;;;;;;5033251;28;75386;-69
2021/05/10 04:27:20;;;;;;;;;;;11.20;69.70;;;;;;5035211;28;74480;-70
2021/05/10 04:29:45;;;;;;;;;;;11.10;69.80;;;;;;5034295;28;75001;-69
2021/05/10 04:32:11;;;;;;;;;;;11.10;69.70;;;;;;5034791;28;75120;-67
2021/05/10 04:34:36;;;;;;;;;;;11.00;69.80;;;;;;5034613;28;75400;-69
2021/05/10 04:37:02;;;;;;;;;;;11.00;69.90;;;;;;5034975;28;74577;-67
2021/05/10 04:39:27;;;;;;;;;;;11.00;70.00;;;;;;5032708;28;76584;-68
2021/05/10 04:41:53;;;;;;;;;;;11.00;70.00;;;;;;5035014;28;74594;-67
2021/05/10 04:44:19;;;;;;;;;;;11.00;69.90;;;;;;5034562;28;75225;-66
2021/05/10 04:46:44;;;;;;;;;;;11.00;69.70;;;;;;5034396;28;75409;-69
2021/05/10 04:49:10;;;;;;;;;;;11.00;69.40;;;;;;5034768;28;75517;-68
2021/05/10 04:51:35;;;;;;;;;;;11.00;69.20;;;;;;5032581;28;75279;-69
2021/05/10 04:54:01;;;;;;;;;;;11.00;69.20;;;;;;5032373;28;77533;-71
2021/05/10 04:56:27;;;;;;;;;;;11.00;69.10;;;;;;5034475;28;75031;-66
2021/05/10 04:58:52;;;;;;;;;;;11.00;68.80;;;;;;5032011;28;77195;-70
2021/05/10 05:01:18;;;;;;;;;;;11.00;68.70;;;;;;5034947;28;74466;-67
2021/05/10 05:03:44;;;;;;;;;;;11.00;68.60;;;;;;5032211;28;77132;-68
2021/05/10 05:06:09;;;;;;;;;;;10.90;68.20;;;;;;5032200;28;77478;-68
2021/05/10 05:08:35;;;;;;;;;;;10.90;68.50;;;;;;5033724;28;74952;-66
2021/05/10 05:11:01;;;;;;;;;;;10.90;68.20;;;;;;5032935;28;78447;-66
2021/05/10 05:13:29;;;;;;;;;;;10.90;68.50;;;;;;5032315;28;77184;-66
2021/05/10 05:15:54;;;;;;;;;;;10.80;68.40;;;;;;5033916;28;75699;-65
2021/05/10 05:18:20;;;;;;;;;;;10.80;68.50;;;;;;5034053;28;75585;-67
2021/05/10 05:20:46;;;;;;;;;;;10.80;68.50;;;;;;5034173;28;74662;-67
2021/05/10 05:23:18;;;;;;;;;;;10.70;68.50;;;;;;5034252;28;74455;-66
2021/05/10 05:25:44;;;;;;;;;;;10.70;68.60;;;;;;5032115;28;76549;-68
2021/05/10 05:28:09;;;;;;;;;;;10.70;68.60;;;;;;5033878;28;75341;-66
2021/05/10 05:30:35;;;;;;;;;;;10.70;68.70;;;;;;5033801;28;74947;-68
2021/05/10 05:33:01;;;;;;;;;;;10.70;68.60;;;;;;5033691;28;75744;-67
2021/05/10 05:35:26;;;;;;;;;;;10.70;68.70;;;;;;5033778;28;75106;-66
2021/05/10 05:37:52;;;;;;;;;;;10.80;68.70;;;;;;5031996;28;77840;-67
2021/05/10 05:40:17;;;;;;;;;;;10.80;68.80;;;;;;5032316;28;76595;-67
2021/05/10 05:42:43;;;;;;;;;;;10.80;68.70;;;;;;5032331;28;75687;-68
2021/05/10 05:45:09;;;;;;;;;;;10.80;68.50;;;;;;5033595;28;75451;-68
2021/05/10 05:47:35;;;;;;;;;;;10.90;68.60;;;;;;5034013;28;77188;-65
2021/05/10 05:50:00;;;;;;;;;;;10.90;68.50;;;;;;5032189;28;75410;-69
2021/05/10 05:52:26;;;;;;;;;;;10.90;68.50;;;;;;5033820;28;75121;-67
2021/05/10 05:54:52;;;;;;;;;;;10.90;68.10;;;;;;5031839;28;75643;-68
2021/05/10 05:57:18;;;;;;;;;;;10.90;68.20;;;;;;5032328;28;78117;-69
2021/05/10 05:59:44;;;;;;;;;;;10.90;68.40;;;;;;5033649;28;74587;-68
2021/05/10 06:02:09;;;;;;;;;;;10.90;68.20;;;;;;5032027;28;77182;-69
2021/05/10 06:04:35;;;;;;;;;;;10.80;68.50;;;;;;5032147;28;75272;-68
2021/05/10 06:07:00;;;;;;;;;;;10.80;68.50;;;;;;5031558;28;75709;-69
2021/05/10 06:09:26;;;;;;;;;;;10.90;68.60;;;;;;5033717;28;75147;-68
2021/05/10 06:11:55;;;;;;;;;;;10.90;68.40;;;;;;5031680;28;77969;-67
2021/05/10 06:14:20;;;;;;;;;;;10.90;68.40;;;;;;5033612;28;74495;-67
2021/05/10 06:16:46;;;;;;;;;;;11.00;68.20;;;;;;5032031;28;74587;-68
2021/05/10 06:19:12;;;;;;;;;;;11.00;68.10;;;;;;5031959;28;74716;-65
2021/05/10 06:21:39;;;;;;;;;;;11.10;68.00;;;;;;5032250;28;77597;-67
2021/05/10 06:24:04;;;;;;;;;;;11.10;67.90;;;;;;5033110;28;74968;-66
2021/05/10 06:26:30;;;;;;;;;;;11.10;67.70;;;;;;5032915;28;75012;-67
2021/05/10 06:28:56;;;;;;;;;;;11.20;67.60;;;;;;5033463;28;75129;-68
2021/05/10 06:31:21;;;;;;;;;;;11.20;67.70;;;;;;5033097;28;75763;-68
2021/05/10 06:33:47;;;;;;;;;;;11.20;67.80;;;;;;5033226;28;75715;-68
2021/05/10 06:36:13;;;;;;;;;;;11.20;67.50;;;;;;5032651;28;75648;-67
2021/05/10 06:38:39;;;;;;;;;;;11.30;67.60;;;;;;5033076;28;75029;-68
2021/05/10 06:41:04;;;;;;;;;;;11.30;67.40;;;;;;5032986;28;75605;-69
2021/05/10 06:43:30;;;;;;;;;;;11.40;67.30;;;;;;5030842;28;76312;-67
2021/05/10 06:45:56;;;;;;;;;;;11.40;67.30;;;;;;5032601;28;74510;-66
2021/05/10 06:48:25;;;;;;;;;;;11.50;67.00;;;;;;5032246;28;75692;-65
2021/05/10 06:50:50;;;;;;;;;;;11.50;66.90;;;;;;5031590;28;76047;-66
2021/05/10 06:53:16;;;;;;;;;;;11.50;66.90;;;;;;5032238;28;74447;-67
2021/05/10 06:55:42;;;;;;;;;;;11.60;66.90;;;;;;5032710;28;75154;-64
2021/05/10 06:58:08;;;;;;;;;;;11.70;66.60;;;;;;5030933;28;76658;-64
2021/05/10 07:00:34;;;;;;;;;;;11.80;66.30;;;;;;5032612;28;74478;-66
2021/05/10 07:03:00;;;;;;;;;;;11.80;65.80;;;;;;5031040;28;74774;-66
2021/05/10 07:05:25;;;;;;;;;;;11.80;65.70;;;;;;5032584;28;74496;-64
2021/05/10 07:07:51;;;;;;;;;;;11.90;65.30;;;;;;5032323;28;75834;-65
2021/05/10 07:10:16;;;;;;;;;;;11.80;65.10;;;;;;5032555;28;74550;-64
2021/05/10 07:12:42;;;;;;;;;;;11.80;65.30;;;;;;5032781;28;75104;-63
2021/05/10 07:15:08;;;;;;;;;;;11.90;65.30;;;;;;5030254;28;77908;-64
2021/05/10 07:17:33;;;;;;;;;;;11.90;65.30;;;;;;5030266;28;77122;-67
2021/05/10 07:19:59;;;;;;;;;;;12.00;65.60;;;;;;5032850;28;74547;-67
2021/05/10 07:22:24;;;;;;;;;;;12.10;65.60;;;;;;5030625;28;74668;-65
2021/05/10 07:24:50;;;;;;;;;;;12.10;65.00;;;;;;5030229;28;77366;-64
2021/05/10 07:27:16;;;;;;;;;;;12.20;65.10;;;;;;5032006;28;75642;-65
2021/05/10 07:29:41;;;;;;;;;;;12.30;65.10;;;;;;5030618;28;75568;-65
2021/05/10 07:32:07;;;;;;;;;;;12.40;65.00;;;;;;5030808;28;75520;-67
2021/05/10 07:34:32;;;;;;;;;;;12.30;64.50;;;;;;5032541;28;75219;-66
2021/05/10 07:36:58;;;;;;;;;;;12.30;65.10;;;;;;5032243;28;75262;-65
2021/05/10 07:39:24;;;;;;;;;;;12.40;65.10;;;;;;5031934;28;75515;-67
2021/05/10 07:41:49;;;;;;;;;;;12.40;65.00;;;;;;5030748;28;75354;-67
2021/05/10 07:44:15;;;;;;;;;;;12.50;65.20;;;;;;5030221;28;75286;-67
2021/05/10 07:46:41;;;;;;;;;;;12.50;65.10;;;;;;5032098;28;75003;-69
2021/05/10 07:49:06;;;;;;;;;;;12.60;65.10;;;;;;5032464;28;74475;-73
2021/05/10 07:51:32;;;;;;;;;;;12.70;64.70;;;;;;5030874;28;75151;-73
2021/05/10 07:53:58;;;;;;;;;;;12.80;64.30;;;;;;5032319;28;74995;-73
2021/05/10 07:56:23;;;;;;;;;;;13.00;64.00;;;;;;5030476;28;76312;-71
2021/05/10 07:58:49;;;;;;;;;;;13.10;63.40;;;;;;5031284;28;77360;-75
2021/05/10 08:01:15;;;;;;;;;;;13.20;61.10;;;;;;5030008;28;75846;-72
2021/05/10 08:03:41;;;;;;;;;;;13.20;60.80;;;;;;5032003;28;75285;-70
2021/05/10 08:06:07;;;;;;;;;;;13.10;61.60;;;;;;5031374;28;74968;-72
2021/05/10 08:08:35;;;;;;;;;;;13.20;61.80;;;;;;5031758;28;75740;-70
2021/05/10 08:11:01;;;;;;;;;;;13.40;61.20;;;;;;5030296;28;75627;-72
2021/05/10 08:13:27;;;;;;;;;;;13.40;61.00;;;;;;5031736;28;74483;-72
2021/05/10 08:15:53;;;;;;;;;;;13.40;60.40;;;;;;5030133;28;77201;-74
2021/05/10 08:18:18;;;;;;;;;;;13.60;61.00;;;;;;5030475;28;75213;-74
2021/05/10 08:20:44;;;;;;;;;;;13.60;60.40;;;;;;5030048;28;75280;-71
2021/05/10 08:23:10;;;;;;;;;;;13.70;59.10;;;;;;5031453;28;75215;-73
2021/05/10 08:25:36;;;;;;;;;;;13.70;59.60;;;;;;5030995;28;76493;-71
2021/05/10 08:28:02;;;;;;;;;;;13.90;59.80;;;;;;5032122;28;76978;-70
2021/05/10 08:30:28;;;;;;;;;;;13.90;59.10;;;;;;5034799;28;75201;-70
2021/05/10 08:32:57;;;;;;;;;;;14.00;58.90;;;;;;5035273;28;74380;-71
2021/05/10 08:35:23;;;;;;;;;;;14.00;58.00;;;;;;5035243;28;75676;-68
2021/05/10 08:37:48;;;;;;;;;;;14.00;58.00;;;;;;5035264;28;74494;-70
2021/05/10 08:40:14;;;;;;;;;;;14.10;56.60;;;;;;5034342;28;75078;-70
2021/05/10 08:42:42;;;;;;;;;;;14.00;57.00;;;;;;5033400;28;77174;-68
2021/05/10 08:45:08;;;;;;;;;;;14.10;56.50;;;;;;5034594;28;75242;-73
2021/05/10 08:47:35;;;;;;;;;;;14.10;57.10;;;;;;5034090;28;74896;-69
2021/05/10 08:50:01;;;;;;;;;;;14.10;57.60;;;;;;5032701;28;77455;-70
2021/05/10 08:52:27;;;;;;;;;;;14.10;56.20;;;;;;5033043;28;77215;-70
2021/05/10 08:54:53;;;;;;;;;;;14.10;56.90;;;;;;5032426;28;77654;-71
2021/05/10 08:57:19;;;;;;;;;;;14.20;56.80;;;;;;5033348;28;76240;-71
2021/05/10 08:59:45;;;;;;;;;;;14.30;56.70;;;;;;5032786;28;75205;-69
2021/05/10 09:02:11;;;;;;;;;;;14.30;56.40;;;;;;5035275;28;74407;-70
2021/05/10 09:04:41;;;;;;;;;;;14.40;56.10;;;;;;5032612;28;74687;-68
2021/05/10 09:07:09;;;;;;;;;;;14.50;55.90;;;;;;5032300;28;77377;-67
2021/05/10 09:09:48;;;;;;;;;;;14.60;55.90;;;;;;5034807;28;74326;-69
2021/05/10 09:12:14;;;;;;;;;;;14.80;55.60;;;;;;5034550;28;74972;-67
2021/05/10 09:14:40;;;;;;;;;;;14.80;55.10;;;;;;5034355;28;74511;-72
2021/05/10 09:17:05;;;;;;;;;;;14.90;54.50;;;;;;5034219;28;75184;-73
2021/05/10 09:19:44;;;;;;;;;;;14.90;53.90;;;;;;5032934;28;75178;-76
2021/05/10 09:22:10;;;;;;;;;;;14.90;54.90;;;;;;5034043;28;75321;-72
2021/05/10 09:24:52;;;;;;;;;;;14.90;54.30;;;;;;5033243;28;77947;-76
2021/05/10 09:27:21;;;;;;;;;;;15.00;53.40;;;;;;5032433;28;75284;-72
2021/05/10 09:29:46;;;;;;;;;;;15.10;53.10;;;;;;5031832;28;77659;-72
2021/05/10 09:32:28;;;;;;;;;;;15.30;53.10;;;;;;5032397;28;75413;-67
2021/05/10 09:35:13;;;;;;;;;;;15.50;53.10;;;;;;5033774;28;74538;-69
2021/05/10 09:37:38;;;;;;;;;;;15.60;52.10;;;;;;5034082;28;75186;-68
2021/05/10 09:40:05;;;;;;;;;;;15.80;52.70;;;;;;5033804;28;74724;-68
2021/05/10 09:42:49;;;;;;;;;;;16.00;52.40;;;;;;5033635;28;76946;-69
2021/05/10 09:45:30;;;;;;;;;;;16.10;51.60;;;;;;5031901;28;75340;-67
2021/05/10 09:48:15;;;;;;;;;;;16.30;51.50;;;;;;5034447;28;74391;-71
2021/05/10 09:50:50;;;;;;;;;;;16.30;49.30;;;;;;5033890;28;75730;-69
2021/05/10 09:53:26;;;;;;;;;;;16.00;50.40;;;;;;5034834;28;74448;-72
2021/05/10 09:55:53;;;;;;;;;;;15.90;50.40;;;;;;5033972;28;75850;-71
2021/05/10 09:58:20;;;;;;;;;;;15.90;50.80;;;;;;5034427;28;75749;-67
2021/05/10 10:00:46;;;;;;;;;;;16.00;48.90;;;;;;5032133;28;76390;-66
2021/05/10 10:03:25;;;;;;;;;;;16.20;50.90;;;;;;5033324;28;75606;-69
2021/05/10 10:05:52;;;;;;;;;;;16.40;49.40;;;;;;5032140;28;76495;-71
2021/05/10 10:08:17;;;;;;;;;;;16.50;48.30;;;;;;5032121;28;76860;-69
2021/05/10 10:10:43;;;;;;;;;;;16.60;48.50;;;;;;5033999;28;75204;-69
2021/05/10 10:13:09;;;;;;;;;;;16.80;48.10;;;;;;5033831;28;74499;-69
2021/05/10 10:15:35;;;;;;;;;;;16.80;47.40;;;;;;5033130;28;75468;-69
2021/05/10 10:18:01;;;;;;;;;;;16.70;47.40;;;;;;5031557;28;75920;-69
2021/05/10 10:20:28;;;;;;;;;;;16.90;47.40;;;;;;5033931;28;75507;-68
2021/05/10 10:22:54;;;;;;;;;;;17.30;48.00;;;;;;5032890;28;75663;-71
2021/05/10 10:25:21;;;;;;;;;;;17.40;45.00;;;;;;5031722;28;77572;-69
2021/05/10 10:27:47;;;;;;;;;;;17.40;45.90;;;;;;5033756;28;75166;-72
2021/05/10 10:30:13;;;;;;;;;;;17.60;44.90;;;;;;5033867;28;74549;-73
2021/05/10 10:32:41;;;;;;;;;;;17.80;46.10;;;;;;5032296;28;75927;-73
2021/05/10 10:35:09;;;;;;;;;;;17.80;46.20;;;;;;5032147;28;75601;-72
2021/05/10 10:37:34;;;;;;;;;;;18.20;45.20;;;;;;5032108;28;77168;-72
2021/05/10 10:40:03;;;;;;;;;;;18.80;43.80;;;;;;5031581;28;74464;-72
2021/05/10 10:42:31;;;;;;;;;;;18.90;42.50;;;;;;5033045;28;75068;-71
2021/05/10 10:44:59;;;;;;;;;;;18.80;40.80;;;;;;5032811;28;75390;-70
2021/05/10 10:47:44;;;;;;;;;;;18.90;41.10;;;;;;5031275;28;77439;-71
2021/05/10 10:50:14;;;;;;;;;;;19.30;39.60;;;;;;5030557;28;75848;-71
2021/05/10 10:52:47;;;;;;;;;;;19.70;37.40;;;;;;5031304;28;75228;-68
2021/05/10 10:55:13;;;;;;;;;;;19.80;35.80;;;;;;5030965;28;77277;-70
2021/05/10 10:57:39;;;;;;;;;;;19.90;37.20;;;;;;5033177;28;75103;-71
2021/05/10 11:00:04;;;;;;;;;;;20.40;36.40;;;;;;5032494;28;74570;-71
2021/05/10 11:02:39;;;;;;;;;;;20.90;36.30;;;;;;5031031;28;75564;-69
2021/05/10 11:05:08;;;;;;;;;;;21.20;34.30;;;;;;5030895;28;75433;-71
2021/05/10 11:08:02;;;;;;;;;;;21.30;34.20;;;;;;5032430;28;75412;-71
2021/05/10 11:10:52;;;;;;;;;;;21.70;35.10;;;;;;5031042;28;76438;-72
2021/05/10 11:13:27;;;;;;;;;;;22.00;33.20;;;;;;5032966;28;74495;-70
2021/05/10 11:15:53;;;;;;;;;;;22.80;32.50;;;;;;5030605;28;77870;-69
2021/05/10 11:18:38;;;;;;;;;;;22.90;33.80;;;;;;5030347;28;77149;-74
2021/05/10 11:21:05;;;;;;;;;;;22.20;34.30;;;;;;5030747;28;75542;-72
2021/05/10 11:23:31;;;;;;;;;;;21.30;34.10;;;;;;5031068;28;77254;-70
2021/05/10 11:25:59;;;;;;;;;;;22.90;32.10;;;;;;5032533;28;75918;-70
2021/05/10 11:28:24;;;;;;;;;;;24.30;29.90;;;;;;5030925;28;75617;-70
2021/05/10 11:30:59;;;;;;;;;;;25.50;26.70;;;;;;5030715;28;75592;-70
2021/05/10 11:33:43;;;;;;;;;;;26.30;27.30;;;;;;5030751;28;77631;-69
2021/05/10 11:36:18;;;;;;;;;;;27.00;26.70;;;;;;5032059;28;75271;-69
2021/05/10 11:38:50;;;;;;;;;;;28.60;25.40;;;;;;5030988;28;76043;-69
2021/05/10 11:41:15;;;;;;;;;;;29.40;24.20;;;;;;5032029;28;74607;-67
2021/05/10 11:43:41;;;;;;;;;;;29.60;23.00;;;;;;5030541;28;75493;-68
2021/05/10 11:46:06;;;;;;;;;;;30.40;21.90;;;;;;5031728;28;75118;-68
2021/05/10 11:48:38;;;;;;;;;;;31.70;20.20;;;;;;5032108;28;75067;-73
2021/05/10 11:51:17;;;;;;;;;;;32.10;21.20;;;;;;5030624;28;78622;-69
2021/05/10 11:53:43;;;;;;;;;;;33.50;19.00;;;;;;5032193;28;75439;-71
2021/05/10 11:56:08;;;;;;;;;;;34.10;18.60;;;;;;5032039;28;74502;-67
2021/05/10 11:58:43;;;;;;;;;;;34.30;19.10;;;;;;5030353;28;74738;-68
2021/05/10 12:01:08;;;;;;;;;;;35.00;18.50;;;;;;5030397;28;76462;-68
2021/05/10 12:03:34;;;;;;;;;;;35.30;17.90;;;;;;5035343;28;75171;-69
2021/05/10 12:06:00;;;;;;;;;;;35.50;15.90;;;;;;5033463;28;75008;-68
2021/05/10 12:08:36;;;;;;;;;;;34.60;17.10;;;;;;5035517;28;74459;-69
2021/05/10 12:11:03;;;;;;;;;;;34.10;17.60;;;;;;5033206;28;76197;-69
2021/05/10 12:13:29;;;;;;;;;;;35.10;16.80;;;;;;5033928;28;76188;-69
2021/05/10 12:16:05;;;;;;;;;;;35.20;17.10;;;;;;5034971;28;75208;-69
2021/05/10 12:18:30;;;;;;;;;;;35.70;16.20;;;;;;5035098;28;75714;-65
2021/05/10 12:20:56;;;;;;;;;;;34.40;16.00;;;;;;5034677;28;75109;-67
2021/05/10 12:23:21;;;;;;;;;;;33.90;17.40;;;;;;5033477;28;74884;-67
2021/05/10 12:25:47;;;;;;;;;;;34.60;16.10;;;;;;5033369;28;75379;-67
2021/05/10 12:28:14;;;;;;;;;;;35.30;16.60;;;;;;5034025;28;75890;-69
2021/05/10 12:31:01;;;;;;;;;;;36.00;16.60;;;;;;5035308;28;75869;-68
2021/05/10 12:33:27;;;;;;;;;;;36.40;15.30;;;;;;5033672;28;75574;-68
2021/05/10 12:35:54;;;;;;;;;;;36.50;14.70;;;;;;5035052;28;74525;-68
2021/05/10 12:38:46;;;;;;;;;;;36.60;16.20;;;;;;5032939;28;77191;-69
2021/05/10 12:41:20;;;;;;;;;;;36.20;16.20;;;;;;5030337;28;75551;-68
2021/05/10 12:43:49;;;;;;;;;;;35.40;16.50;;;;;;5035090;28;75202;-69
2021/05/10 12:46:15;;;;;;;;;;;33.50;16.60;;;;;;5040515;28;75245;-68
2021/05/10 12:48:43;;;;;;;;;;;32.30;18.10;;;;;;5054186;27;74612;-68
2021/05/10 12:51:11;;;;;;;;;;;31.90;18.70;;;;;;5055296;28;75390;-69
2021/05/10 12:53:37;;;;;;;;;;;29.80;19.90;;;;;;5053466;28;76181;-69
2021/05/10 12:56:04;;;;;;;;;;;29.90;20.50;;;;;;5053376;28;78173;-68
2021/05/10 12:58:49;;;;;;;;;;;28.20;21.40;;;;;;5054947;28;75496;-69
2021/05/10 13:01:14;;;;;;;;;;;28.60;22.30;;;;;;5052831;28;77737;-70
2021/05/10 13:03:40;;;;;;;;;;;31.40;19.80;;;;;;5054846;27;74968;-69
2021/05/10 13:06:06;;;;;;;;;;;30.50;19.70;;;;;;5052526;28;75427;-69
2021/05/10 13:08:36;;;;;;;;;;;28.60;21.10;;;;;;5053264;27;75149;-68
2021/05/10 13:11:02;;;;;;;;;;;26.70;23.20;;;;;;5054793;28;75312;-66
2021/05/10 13:14:03;;;;;;;;;;;25.70;24.60;;;;;;5052194;27;75087;-69
2021/05/10 13:16:37;;;;;;;;;;;25.10;24.60;;;;;;5041990;28;77698;-68
2021/05/10 13:19:25;;;;;;;;;;;25.00;25.60;;;;;;5053006;28;78073;-68
2021/05/10 13:22:25;;;;;;;;;;;27.20;23.10;;;;;;5054755;27;74467;-67
2021/05/10 13:33:29;;;;;;;;;;;33.40;19.70;;;;;;5051329;27;75034;-69
2021/05/10 13:36:05;;;;;;;;;;;31.30;20.60;;;;;;5054297;28;74595;-66
2021/05/10 13:38:32;;;;;;;;;;;29.00;22.40;;;;;;5052537;28;77704;-68
2021/05/10 13:41:02;;;;;;;;;;;29.90;22.40;;;;;;5052710;28;76363;-68
2021/05/10 13:43:34;;;;;;;;;;;33.40;19.70;;;;;;5052751;28;77981;-68
2021/05/10 13:46:03;;;;;;;;;;;35.50;17.70;;;;;;5051742;27;74669;-68
2021/05/10 13:48:29;;;;;;;;;;;36.00;17.50;;;;;;5051332;27;74726;-67
2021/05/10 13:50:55;;;;;;;;;;;35.10;18.10;;;;;;5061207;27;77619;-67
2021/05/10 13:53:20;;;;;;;;;;;34.10;18.10;;;;;;5054979;27;75057;-69
2021/05/10 13:55:46;;;;;;;;;;;33.00;19.30;;;;;;5060680;27;74936;-68
2021/05/10 13:58:12;;;;;;;;;;;31.80;19.80;;;;;;5060505;27;75196;-67
2021/05/10 14:00:37;;;;;;;;;;;32.50;19.50;;;;;;5056201;27;78186;-68
2021/05/10 14:03:03;;;;;;;;;;;32.90;18.80;;;;;;5053891;27;74959;-67
2021/05/10 14:05:29;;;;;;;;;;;31.80;19.80;;;;;;5052121;28;75699;-67
2021/05/10 14:07:55;;;;;;;;;;;29.50;21.10;;;;;;5051770;28;77920;-67
2021/05/10 14:10:20;;;;;;;;;;;27.90;22.70;;;;;;5052214;28;74736;-68
2021/05/10 14:12:46;;;;;;;;;;;27.30;23.40;;;;;;5052363;28;77170;-68
2021/05/10 14:15:12;;;;;;;;;;;26.90;23.90;;;;;;5051927;28;77212;-70
2021/05/10 14:17:40;;;;;;;;;;;27.00;23.50;;;;;;5052845;28;78066;-71
2021/05/10 14:20:06;;;;;;;;;;;29.80;21.90;;;;;;5052033;28;77246;-69
2021/05/10 14:22:32;;;;;;;;;;;32.70;19.10;;;;;;5052232;28;78401;-70
2021/05/10 14:24:57;;;;;;;;;;;31.70;18.80;;;;;;5050992;27;77170;-70
2021/05/10 14:27:23;;;;;;;;;;;29.40;21.40;;;;;;5053257;28;75453;-70
2021/05/10 14:29:49;;;;;;;;;;;29.60;21.60;;;;;;5053688;27;75637;-70
2021/05/10 14:32:15;;;;;;;;;;;29.30;21.90;;;;;;5053687;27;75519;-69
2021/05/10 14:34:41;;;;;;;;;;;28.60;22.20;;;;;;5051385;28;77221;-69